Date,TemperatureHighF,TemperatureAvgF,TemperatureLowF,DewpointHighF,DewpointAvgF,DewpointLowF,HumidityHigh,HumidityAvg,HumidityLow,PressureMaxIn,PressureMinIn,WindSpeedMaxMPH,WindSpeedAvgMPH,GustSpeedMaxMPH,PrecipitationSumIn
2013-1-1,49,45,38,49,43,30,98,94,65,27.93,27.85,5,0,5,0.00
2013-1-2,38,34,33,37,33,31,98,96,91,28.02,27.88,7,0,7,0.00
2013-1-3,46,34,29,31,25,18,95,73,44,28.20,27.99,5,0,5,0.00
2013-1-4,48,34,26,25,19,16,74,56,37,28.26,28.14,5,0,5,0.00
2013-1-5,50,37,27,32,22,16,88,56,36,28.20,28.08,6,0,6,0.00
2013-1-6,49,38,32,36,32,27,97,79,50,28.14,27.99,6,0,6,0.00
2013-1-7,54,37,25,29,24,21,90,64,36,28.23,28.11,9,1,9,0.00
2013-1-8,56,44,36,45,33,24,95,65,48,28.23,28.11,9,1,9,0.00
2013-1-9,56,51,46,55,50,44,98,97,93,28.29,28.17,6,0,6,0.00
2013-1-10,58,55,50,56,53,49,98,95,88,28.29,28.02,9,1,9,0.00
2013-1-11,63,60,57,62,59,56,98,97,93,28.05,27.96,12,1,12,0.00
2013-1-12,66,63,61,64,61,58,98,95,90,28.05,27.90,7,1,7,0.00
2013-1-13,62,59,46,61,58,45,98,97,91,27.93,27.88,10,2,10,0.00
2013-1-14,46,38,33,45,38,33,98,98,96,28.08,27.93,8,1,8,0.00
2013-1-15,44,40,37,43,40,36,98,98,98,27.99,27.85,7,1,7,0.00
2013-1-16,47,43,37,46,42,36,98,98,97,27.93,27.79,3,0,3,0.00
2013-1-17,41,37,32,40,33,21,98,86,63,28.14,27.67,12,2,12,0.00
2013-1-18,54,37,27,30,24,16,91,63,37,28.35,28.14,4,0,4,0.00
2013-1-19,57,42,32,31,25,22,69,52,37,28.23,28.05,6,1,6,0.00
2013-1-20,62,46,38,36,28,22,66,50,36,28.05,27.99,5,1,5,0.00
2013-1-21,50,37,26,23,17,7,57,44,27,28.05,27.96,6,1,6,0.00
2013-1-22,39,27,18,10,4,-15,53,39,11,28.17,28.02,7,1,7,0.00
2013-1-23,51,37,28,34,17,7,68,44,36,28.17,27.99,6,1,6,0.00
2013-1-24,45,36,26,39,18,1,81,50,30,28.20,28.02,8,1,8,0.00
2013-1-25,38,32,27,37,22,1,97,72,32,28.17,27.93,8,1,8,0.00
2013-1-26,53,38,30,35,29,24,97,71,39,28.17,28.02,4,0,212,0.00
2013-1-27,46,38,29,33,30,26,93,72,55,28.23,28.14,8,1,8,0.00
2013-1-28,59,47,39,49,38,26,95,73,55,28.20,28.11,8,1,8,0.00
2013-1-29,61,53,47,59,52,45,98,97,93,28.11,27.79,8,1,8,0.00
2013-1-30,63,52,34,63,50,27,98,95,76,27.79,27.46,13,2,13,0.00
2013-1-31,46,35,29,27,20,17,76,55,40,27.93,27.67,8,2,8,0.00